RYR47EX EDDH-EDDL
Flight info
| Callsign | RYR47EX |
|---|---|
| Flight time | 0h 37m |
| Altitude | 30000 |
| Route | HABFU1G/33 HABFU Y348 MAWEQ Z718 OSNAD M170 HMM T851 HALME HALME1A |
| Aircraft | B38M/M-SDE1FGHILORVWXY/HB1 |
Departure
| Time | 2026-05-04 21:16 |
|---|---|
| Airport | Hamburg Helmut Schmidt Airport (EDDH) |
Arrival
| Time | 2026-05-04 21:53 |
|---|---|
| Airport | Düsseldorf Airport (EDDL) |
| Time | Latitude | Longitude | Altitude | Speed | Heading |
|---|---|---|---|---|---|
| 2026-05-04 20:52 | 53.62773 | 10.00272 | 51 ft | 0 kts | 63° |
| 2026-05-04 21:09 | 53.62770 | 10.00263 | 51 ft | 4 kts | 62° |
| 2026-05-04 21:09 | 53.62756 | 10.00225 | 47 ft | 4 kts | 50° |
| 2026-05-04 21:10 | 53.62737 | 10.00195 | 51 ft | 4 kts | 28° |
| 2026-05-04 21:10 | 53.62714 | 10.00186 | 49 ft | 4 kts | 341° |
| 2026-05-04 21:10 | 53.62705 | 10.00193 | 49 ft | 1 kts | 333° |
| 2026-05-04 21:10 | 53.62704 | 10.00193 | 49 ft | 0 kts | 333° |
| 2026-05-04 21:14 | 53.62705 | 10.00193 | 49 ft | 0 kts | 333° |
| 2026-05-04 21:14 | 53.62716 | 10.00183 | 49 ft | 3 kts | 333° |
| 2026-05-04 21:14 | 53.62746 | 10.00157 | 47 ft | 6 kts | 333° |
| 2026-05-04 21:14 | 53.62792 | 10.00117 | 47 ft | 9 kts | 333° |
| 2026-05-04 21:15 | 53.62847 | 10.00056 | 48 ft | 6 kts | 305° |
| 2026-05-04 21:15 | 53.62847 | 9.99971 | 50 ft | 9 kts | 247° |
| 2026-05-04 21:15 | 53.62815 | 9.99849 | 48 ft | 13 kts | 251° |
| 2026-05-04 21:15 | 53.62869 | 9.99745 | 47 ft | 14 kts | 333° |
| 2026-05-04 21:16 | 53.63009 | 9.99624 | 48 ft | 48 kts | 332° |
| 2026-05-04 21:16 | 53.63543 | 9.99163 | 50 ft | 122 kts | 332° |
| 2026-05-04 21:16 | 53.64470 | 9.98361 | 215 ft | 166 kts | 333° |
| 2026-05-04 21:16 | 53.65523 | 9.97482 | 985 ft | 170 kts | 333° |
| 2026-05-04 21:17 | 53.66608 | 9.96553 | 1697 ft | 180 kts | 332° |
| 2026-05-04 21:17 | 53.67744 | 9.95596 | 2429 ft | 188 kts | 333° |
| 2026-05-04 21:17 | 53.68978 | 9.94574 | 2976 ft | 211 kts | 333° |
| 2026-05-04 21:17 | 53.70327 | 9.93416 | 3744 ft | 224 kts | 328° |
| 2026-05-04 21:18 | 53.71465 | 9.91506 | 4333 ft | 242 kts | 294° |
| 2026-05-04 21:18 | 53.71640 | 9.88701 | 5180 ft | 250 kts | 257° |
| 2026-05-04 21:18 | 53.71037 | 9.85877 | 6090 ft | 255 kts | 247° |
| 2026-05-04 21:18 | 53.70380 | 9.83165 | 7210 ft | 250 kts | 248° |
| 2026-05-04 21:19 | 53.69755 | 9.80341 | 7970 ft | 266 kts | 250° |
| 2026-05-04 21:19 | 53.69124 | 9.77312 | 8596 ft | 281 kts | 251° |
| 2026-05-04 21:19 | 53.68490 | 9.74190 | 9563 ft | 282 kts | 251° |
| 2026-05-04 21:19 | 53.67855 | 9.71022 | 10389 ft | 290 kts | 251° |
| 2026-05-04 21:20 | 53.67192 | 9.67690 | 10881 ft | 309 kts | 251° |
| 2026-05-04 21:20 | 53.66491 | 9.64160 | 11450 ft | 323 kts | 251° |
| 2026-05-04 21:20 | 53.65714 | 9.60561 | 12216 ft | 329 kts | 243° |
| 2026-05-04 21:20 | 53.64333 | 9.57537 | 13057 ft | 332 kts | 221° |
| 2026-05-04 21:21 | 53.62383 | 9.55409 | 13845 ft | 337 kts | 209° |
| 2026-05-04 21:21 | 53.60320 | 9.53466 | 14630 ft | 342 kts | 209° |
| 2026-05-04 21:21 | 53.58228 | 9.51518 | 15420 ft | 345 kts | 209° |
| 2026-05-04 21:21 | 53.56110 | 9.49566 | 16165 ft | 350 kts | 209° |
| 2026-05-04 21:22 | 53.53973 | 9.47606 | 16897 ft | 354 kts | 209° |
| 2026-05-04 21:22 | 53.51799 | 9.45618 | 17599 ft | 358 kts | 208° |
| 2026-05-04 21:22 | 53.50315 | 9.44263 | 18060 ft | 360 kts | 208° |
| 2026-05-04 21:22 | 53.48101 | 9.42244 | 18731 ft | 364 kts | 208° |
| 2026-05-04 21:23 | 53.45866 | 9.40210 | 19369 ft | 367 kts | 208° |
| 2026-05-04 21:23 | 53.43638 | 9.38183 | 19986 ft | 371 kts | 208° |
| 2026-05-04 21:23 | 53.41340 | 9.36096 | 20602 ft | 374 kts | 208° |
| 2026-05-04 21:23 | 53.39040 | 9.34010 | 21183 ft | 378 kts | 208° |
| 2026-05-04 21:24 | 53.36719 | 9.31907 | 21758 ft | 381 kts | 208° |
| 2026-05-04 21:24 | 53.34374 | 9.29785 | 22326 ft | 384 kts | 208° |
| 2026-05-04 21:24 | 53.31959 | 9.27999 | 22838 ft | 388 kts | 194° |
| 2026-05-04 21:24 | 53.29299 | 9.27143 | 23392 ft | 390 kts | 191° |
| 2026-05-04 21:25 | 53.26613 | 9.26292 | 23856 ft | 395 kts | 191° |
| 2026-05-04 21:25 | 53.23908 | 9.25462 | 24370 ft | 397 kts | 191° |
| 2026-05-04 21:25 | 53.21175 | 9.24638 | 24847 ft | 401 kts | 190° |
| 2026-05-04 21:25 | 53.18439 | 9.23821 | 25322 ft | 403 kts | 190° |
| 2026-05-04 21:26 | 53.15664 | 9.22996 | 25779 ft | 406 kts | 190° |
| 2026-05-04 21:26 | 53.12872 | 9.22167 | 26222 ft | 409 kts | 190° |
| 2026-05-04 21:26 | 53.10059 | 9.21334 | 26658 ft | 412 kts | 190° |
| 2026-05-04 21:26 | 53.07224 | 9.20496 | 27078 ft | 415 kts | 190° |
| 2026-05-04 21:27 | 53.04381 | 9.19656 | 27491 ft | 417 kts | 190° |
| 2026-05-04 21:27 | 53.01513 | 9.18809 | 27892 ft | 420 kts | 190° |
| 2026-05-04 21:27 | 52.98624 | 9.17958 | 28291 ft | 422 kts | 190° |
| 2026-05-04 21:27 | 52.95735 | 9.17001 | 28654 ft | 425 kts | 198° |
| 2026-05-04 21:28 | 52.93063 | 9.15006 | 29137 ft | 422 kts | 209° |
| 2026-05-04 21:28 | 52.90459 | 9.12761 | 29544 ft | 424 kts | 207° |
| 2026-05-04 21:28 | 52.87837 | 9.10515 | 29929 ft | 425 kts | 208° |
| 2026-05-04 21:28 | 52.85217 | 9.08244 | 30019 ft | 424 kts | 208° |
| 2026-05-04 21:29 | 52.80268 | 9.03113 | 29994 ft | 420 kts | 224° |
| 2026-05-04 21:29 | 52.76007 | 8.96497 | 29996 ft | 421 kts | 222° |
| 2026-05-04 21:30 | 52.71673 | 8.90031 | 29996 ft | 421 kts | 222° |
| 2026-05-04 21:30 | 52.67321 | 8.83575 | 30000 ft | 421 kts | 222° |
| 2026-05-04 21:31 | 52.62967 | 8.77135 | 29565 ft | 420 kts | 222° |
| 2026-05-04 21:31 | 52.60792 | 8.73924 | 29185 ft | 420 kts | 222° |
| 2026-05-04 21:31 | 52.58613 | 8.70714 | 28819 ft | 421 kts | 222° |
| 2026-05-04 21:32 | 52.56459 | 8.67544 | 28454 ft | 421 kts | 222° |
| 2026-05-04 21:32 | 52.54286 | 8.64350 | 28084 ft | 422 kts | 222° |
| 2026-05-04 21:32 | 52.52093 | 8.61132 | 27710 ft | 423 kts | 222° |
| 2026-05-04 21:32 | 52.49899 | 8.57916 | 27338 ft | 424 kts | 222° |
| 2026-05-04 21:33 | 52.47698 | 8.54695 | 26971 ft | 424 kts | 222° |
| 2026-05-04 21:33 | 52.45498 | 8.51480 | 26602 ft | 425 kts | 222° |
| 2026-05-04 21:33 | 52.43292 | 8.48260 | 26196 ft | 426 kts | 222° |
| 2026-05-04 21:33 | 52.41080 | 8.45036 | 25677 ft | 426 kts | 222° |
| 2026-05-04 21:34 | 52.38867 | 8.41816 | 25183 ft | 425 kts | 222° |
| 2026-05-04 21:34 | 52.36658 | 8.38605 | 24685 ft | 423 kts | 221° |
| 2026-05-04 21:34 | 52.34480 | 8.35443 | 24190 ft | 420 kts | 221° |
| 2026-05-04 21:34 | 52.32303 | 8.32287 | 23693 ft | 417 kts | 221° |
| 2026-05-04 21:35 | 52.30144 | 8.29162 | 23196 ft | 414 kts | 221° |
| 2026-05-04 21:35 | 52.27999 | 8.26060 | 22701 ft | 411 kts | 221° |
| 2026-05-04 21:35 | 52.25866 | 8.22980 | 22201 ft | 407 kts | 221° |
| 2026-05-04 21:35 | 52.23748 | 8.19927 | 21696 ft | 404 kts | 221° |
| 2026-05-04 21:36 | 52.21647 | 8.16902 | 21205 ft | 401 kts | 221° |
| 2026-05-04 21:36 | 52.19565 | 8.13907 | 20705 ft | 398 kts | 221° |
| 2026-05-04 21:36 | 52.17507 | 8.10952 | 20214 ft | 395 kts | 221° |
| 2026-05-04 21:36 | 52.15445 | 8.07994 | 19715 ft | 393 kts | 221° |
| 2026-05-04 21:37 | 52.13404 | 8.05071 | 19216 ft | 390 kts | 221° |
| 2026-05-04 21:37 | 52.11372 | 8.02163 | 18593 ft | 390 kts | 221° |
| 2026-05-04 21:37 | 52.09440 | 7.99402 | 17997 ft | 391 kts | 221° |
| 2026-05-04 21:37 | 52.07385 | 7.96470 | 17377 ft | 392 kts | 221° |
| 2026-05-04 21:38 | 52.05330 | 7.93542 | 16752 ft | 393 kts | 221° |
| 2026-05-04 21:38 | 52.03278 | 7.90622 | 16211 ft | 391 kts | 221° |
| 2026-05-04 21:38 | 52.01234 | 7.87717 | 15703 ft | 388 kts | 221° |
| 2026-05-04 21:38 | 51.99213 | 7.84846 | 15202 ft | 385 kts | 221° |
| 2026-05-04 21:39 | 51.97235 | 7.82041 | 14682 ft | 383 kts | 221° |
| 2026-05-04 21:39 | 51.95237 | 7.79210 | 14191 ft | 381 kts | 221° |
| 2026-05-04 21:39 | 51.93248 | 7.76396 | 13693 ft | 378 kts | 221° |
| 2026-05-04 21:39 | 51.91269 | 7.73600 | 13239 ft | 375 kts | 221° |
| 2026-05-04 21:40 | 51.89290 | 7.70807 | 12869 ft | 369 kts | 221° |
| 2026-05-04 21:40 | 51.87373 | 7.68104 | 12552 ft | 362 kts | 221° |
| 2026-05-04 21:40 | 51.85513 | 7.65485 | 12232 ft | 357 kts | 221° |
| 2026-05-04 21:40 | 51.83658 | 7.62875 | 11907 ft | 351 kts | 221° |
| 2026-05-04 21:41 | 51.81822 | 7.60296 | 11581 ft | 347 kts | 221° |
| 2026-05-04 21:41 | 51.80016 | 7.57761 | 11257 ft | 346 kts | 221° |
| 2026-05-04 21:41 | 51.78198 | 7.55213 | 10900 ft | 345 kts | 221° |
| 2026-05-04 21:41 | 51.76388 | 7.52680 | 10451 ft | 345 kts | 221° |
| 2026-05-04 21:42 | 51.74575 | 7.50144 | 10008 ft | 344 kts | 221° |
| 2026-05-04 21:42 | 51.72776 | 7.47630 | 9557 ft | 342 kts | 221° |
| 2026-05-04 21:42 | 51.70978 | 7.45122 | 9114 ft | 341 kts | 221° |
| 2026-05-04 21:42 | 51.69212 | 7.42660 | 8652 ft | 330 kts | 221° |
| 2026-05-04 21:43 | 51.67503 | 7.40279 | 8199 ft | 318 kts | 221° |
| 2026-05-04 21:43 | 51.65879 | 7.38020 | 8106 ft | 296 kts | 221° |
| 2026-05-04 21:43 | 51.64381 | 7.35938 | 8088 ft | 273 kts | 221° |
| 2026-05-04 21:43 | 51.62994 | 7.34010 | 8044 ft | 254 kts | 221° |
| 2026-05-04 21:44 | 51.61669 | 7.32171 | 7799 ft | 251 kts | 221° |
| 2026-05-04 21:44 | 51.60347 | 7.30339 | 7433 ft | 254 kts | 221° |
| 2026-05-04 21:44 | 51.58993 | 7.28464 | 7048 ft | 257 kts | 221° |
| 2026-05-04 21:44 | 51.57665 | 7.26626 | 6982 ft | 246 kts | 221° |
| 2026-05-04 21:45 | 51.56373 | 7.24839 | 6813 ft | 245 kts | 221° |
| 2026-05-04 21:45 | 51.55073 | 7.23042 | 6467 ft | 247 kts | 221° |
| 2026-05-04 21:45 | 51.53766 | 7.21238 | 6082 ft | 249 kts | 221° |
| 2026-05-04 21:45 | 51.52440 | 7.19409 | 5643 ft | 253 kts | 221° |
| 2026-05-04 21:46 | 51.51101 | 7.17563 | 5197 ft | 255 kts | 221° |
| 2026-05-04 21:46 | 51.49751 | 7.15704 | 4761 ft | 256 kts | 221° |
| 2026-05-04 21:46 | 51.48415 | 7.13838 | 4459 ft | 251 kts | 225° |
| 2026-05-04 21:46 | 51.47171 | 7.11939 | 4230 ft | 244 kts | 223° |
| 2026-05-04 21:47 | 51.45947 | 7.10128 | 4079 ft | 233 kts | 223° |
| 2026-05-04 21:47 | 51.44807 | 7.08439 | 4105 ft | 214 kts | 223° |
| 2026-05-04 21:47 | 51.43756 | 7.06885 | 4071 ft | 197 kts | 223° |
| 2026-05-04 21:47 | 51.42760 | 7.05534 | 4051 ft | 179 kts | 221° |
| 2026-05-04 21:48 | 51.41879 | 7.04176 | 4003 ft | 177 kts | 227° |
| 2026-05-04 21:48 | 51.41078 | 7.02718 | 3809 ft | 171 kts | 231° |
| 2026-05-04 21:48 | 51.40362 | 7.01293 | 3618 ft | 156 kts | 232° |
| 2026-05-04 21:48 | 51.39723 | 6.99968 | 3437 ft | 147 kts | 233° |
| 2026-05-04 21:49 | 51.39104 | 6.98670 | 3267 ft | 147 kts | 233° |
| 2026-05-04 21:49 | 51.38488 | 6.97376 | 3065 ft | 146 kts | 233° |
| 2026-05-04 21:49 | 51.37878 | 6.96089 | 2872 ft | 145 kts | 233° |
| 2026-05-04 21:49 | 51.37267 | 6.94801 | 2679 ft | 145 kts | 233° |
| 2026-05-04 21:50 | 51.36676 | 6.93525 | 2458 ft | 143 kts | 234° |
| 2026-05-04 21:50 | 51.36079 | 6.92228 | 2290 ft | 145 kts | 233° |
| 2026-05-04 21:50 | 51.35466 | 6.90926 | 2131 ft | 148 kts | 233° |
| 2026-05-04 21:50 | 51.34834 | 6.89636 | 1938 ft | 147 kts | 232° |
| 2026-05-04 21:51 | 51.34213 | 6.88336 | 1754 ft | 147 kts | 234° |
| 2026-05-04 21:51 | 51.33609 | 6.87017 | 1568 ft | 146 kts | 234° |
| 2026-05-04 21:51 | 51.33011 | 6.85716 | 1385 ft | 146 kts | 233° |
| 2026-05-04 21:51 | 51.32368 | 6.84427 | 1131 ft | 151 kts | 231° |
| 2026-05-04 21:52 | 51.31729 | 6.83124 | 882 ft | 145 kts | 233° |
| 2026-05-04 21:52 | 51.31136 | 6.81853 | 716 ft | 137 kts | 233° |
| 2026-05-04 21:52 | 51.30573 | 6.80689 | 527 ft | 133 kts | 232° |
| 2026-05-04 21:52 | 51.30009 | 6.79507 | 384 ft | 132 kts | 233° |
| 2026-05-04 21:53 | 51.29465 | 6.78355 | 212 ft | 133 kts | 232° |
| 2026-05-04 21:53 | 51.28939 | 6.77246 | 133 ft | 115 kts | 233° |
| 2026-05-04 21:53 | 51.28536 | 6.76404 | 132 ft | 64 kts | 232° |
| 2026-05-04 21:53 | 51.28388 | 6.76107 | 132 ft | 17 kts | 223° |
| 2026-05-04 21:54 | 51.28300 | 6.76034 | 132 ft | 11 kts | 206° |
| 2026-05-04 21:54 | 51.28224 | 6.75971 | 129 ft | 14 kts | 205° |
| 2026-05-04 21:54 | 51.28132 | 6.75903 | 131 ft | 15 kts | 205° |
| 2026-05-04 21:54 | 51.28056 | 6.75846 | 132 ft | 10 kts | 205° |
| 2026-05-04 21:55 | 51.27982 | 6.75822 | 132 ft | 12 kts | 184° |
| 2026-05-04 21:55 | 51.27890 | 6.75816 | 132 ft | 14 kts | 181° |
| 2026-05-04 21:55 | 51.27788 | 6.75813 | 132 ft | 11 kts | 180° |
| 2026-05-04 21:55 | 51.27765 | 6.75793 | 132 ft | 1 kts | 242° |
| 2026-05-04 21:56 | 51.27763 | 6.75761 | 132 ft | 5 kts | 268° |
| 2026-05-04 21:56 | 51.27763 | 6.75727 | 132 ft | 2 kts | 269° |
| 2026-05-04 21:56 | 51.27763 | 6.75710 | 132 ft | 1 kts | 270° |
| 2026-05-04 21:56 | 51.27763 | 6.75701 | 132 ft | 0 kts | 270° |